Time;durP1;ratioP1;P1;durP2;ratioP2;P2;SDS_P1;SDS_P2;PMS_P1;PMS_P2;Temp;Humidity;BMP_temperature;BMP_pressure;BME280_temperature;BME280_humidity;BME280_pressure;Samples;Min_cycle;Max_cycle;Signal;HPM_P1;HPM_P2
2022/02/27 00:00:19;;;;;;;12.43;5.20;;;;;;;3.74;63.34;99464.72;12576084;23;20022;-76
2022/02/27 00:05:45;;;;;;;13.75;5.15;;;;;;;3.78;63.60;99467.25;12539083;23;20022;-76
2022/02/27 00:11:06;;;;;;;13.95;6.00;;;;;;;3.80;63.34;99483.31;12576549;23;20019;-77
2022/02/27 00:16:28;;;;;;;13.15;5.15;;;;;;;3.77;63.42;99471.28;12557286;23;20018;-76
2022/02/27 00:21:49;;;;;;;15.27;5.07;;;;;;;3.76;63.17;99469.00;12577577;23;20085;-76
2022/02/27 00:27:10;;;;;;;11.10;5.18;;;;;;;3.71;63.43;99473.28;12536820;23;20378;-76
2022/02/27 00:32:31;;;;;;;14.40;5.10;;;;;;;3.59;63.65;99475.34;12557029;23;20082;-77
2022/02/27 00:37:52;;;;;;;12.52;5.22;;;;;;;3.59;63.79;99469.81;12556211;23;20022;-76
2022/02/27 00:43:13;;;;;;;12.98;5.10;;;;;;;3.57;63.79;99472.34;12537697;23;20015;-76
2022/02/27 00:48:34;;;;;;;11.38;4.70;;;;;;;3.59;64.17;99458.00;12536745;23;20019;-76
2022/02/27 00:53:56;;;;;;;11.85;4.75;;;;;;;3.61;64.32;99463.78;12556886;23;20042;-76
2022/02/27 00:59:16;;;;;;;13.90;5.43;;;;;;;3.67;64.17;99461.75;12556793;23;20019;-76
2022/02/27 01:04:37;;;;;;;13.65;5.25;;;;;;;3.71;64.17;99465.75;12542839;23;20047;-76
2022/02/27 01:09:58;;;;;;;16.65;5.70;;;;;;;3.63;64.34;99459.25;12536407;23;20015;-76
2022/02/27 01:15:21;;;;;;;15.10;5.43;;;;;;;3.66;63.85;99465.75;12557055;23;20086;-76
2022/02/27 01:20:44;;;;;;;15.00;5.35;;;;;;;3.61;64.35;99463.78;12560589;23;20345;-76
2022/02/27 01:26:06;;;;;;;14.77;5.70;;;;;;;3.54;65.02;99450.47;12559851;23;20019;-76
2022/02/27 01:31:29;;;;;;;13.75;5.47;;;;;;;3.49;64.87;99454.78;12560668;23;20015;-76
2022/02/27 01:36:50;;;;;;;14.93;5.68;;;;;;;3.53;64.52;99460.03;12579933;23;20066;-76
2022/02/27 01:42:13;;;;;;;13.43;5.10;;;;;;;3.53;64.97;99460.03;12539630;23;20018;-77
2022/02/27 01:47:34;;;;;;;16.73;5.13;;;;;;;3.52;64.43;99459.28;12558905;23;20019;-77
2022/02/27 01:52:56;;;;;;;14.18;5.95;;;;;;;3.50;64.82;99456.28;12539329;23;20023;-77
2022/02/27 01:58:17;;;;;;;15.25;5.72;;;;;;;3.50;64.51;99461.78;12537674;23;20025;-77
2022/02/27 02:03:38;;;;;;;12.93;5.47;;;;;;;3.58;64.74;99457.25;12545226;23;20026;-76
2022/02/27 02:08:59;;;;;;;14.73;6.03;;;;;;;3.68;64.63;99454.97;12559070;23;20080;-76
2022/02/27 02:14:20;;;;;;;10.95;4.70;;;;;;;3.74;64.95;99447.41;12558948;23;20042;-76
2022/02/27 02:19:44;;;;;;;13.95;5.70;;;;;;;3.78;64.82;99447.16;12540647;23;20518;-77
2022/02/27 02:25:08;;;;;;;13.77;5.38;;;;;;;3.78;64.48;99456.19;12559518;23;20066;-76
2022/02/27 02:30:28;;;;;;;13.82;5.22;;;;;;;3.74;64.47;99448.16;12558874;23;20025;-76
2022/02/27 02:35:49;;;;;;;12.57;5.20;;;;;;;3.66;65.03;99447.19;12558110;23;20014;-76
2022/02/27 02:41:10;;;;;;;14.38;5.47;;;;;;;3.56;65.08;99437.66;12538894;23;20018;-77
2022/02/27 02:46:31;;;;;;;11.20;5.38;;;;;;;3.44;65.10;99436.94;12538966;23;20015;-76
2022/02/27 02:51:54;;;;;;;16.25;5.70;;;;;;;3.33;64.92;99430.72;12558991;23;20021;-76
2022/02/27 02:57:15;;;;;;;11.85;5.55;;;;;;;3.19;65.47;99432.50;12558003;23;20089;-77
2022/02/27 03:02:37;;;;;;;13.77;5.65;;;;;;;3.03;65.08;99431.25;12552264;23;20095;-76
2022/02/27 03:07:57;;;;;;;14.70;5.47;;;;;;;2.86;65.72;99424.97;12558262;23;20025;-76
2022/02/27 03:13:18;;;;;;;11.70;4.97;;;;;;;2.72;65.05;99434.28;12558240;23;20015;-77
2022/02/27 03:18:39;;;;;;;16.05;5.78;;;;;;;2.59;65.36;99420.94;12536263;23;20026;-76
2022/02/27 03:24:00;;;;;;;14.07;5.57;;;;;;;2.53;65.72;99423.72;12537054;23;20015;-77
2022/02/27 03:29:21;;;;;;;11.35;5.22;;;;;;;2.43;65.77;99425.22;12577340;23;20015;-76
2022/02/27 03:34:42;;;;;;;12.05;5.22;;;;;;;2.37;65.80;99421.69;12537408;23;20529;-76
2022/02/27 03:40:04;;;;;;;15.30;5.28;;;;;;;2.31;65.86;99420.91;12577854;23;20027;-76
2022/02/27 03:45:25;;;;;;;15.93;5.68;;;;;;;2.19;66.36;99420.13;12557058;23;20042;-76
2022/02/27 03:50:46;;;;;;;15.20;5.93;;;;;;;2.10;66.16;99414.09;12537706;23;20023;-76
2022/02/27 03:56:09;;;;;;;13.07;5.68;;;;;;;1.93;65.75;99436.09;12537941;23;20025;-76
2022/02/27 04:01:29;;;;;;;15.85;6.05;;;;;;;1.92;66.24;99437.34;12555507;23;20074;-78
2022/02/27 04:06:50;;;;;;;12.70;6.10;;;;;;;1.90;66.19;99434.31;12557271;23;20089;-76
2022/02/27 04:12:13;;;;;;;10.80;5.35;;;;;;;1.89;66.63;99436.31;12557335;23;20015;-76
2022/02/27 04:17:33;;;;;;;14.13;5.45;;;;;;;1.83;66.44;99438.28;12537148;23;20015;-76
2022/02/27 04:22:54;;;;;;;14.88;6.15;;;;;;;1.75;66.37;99440.03;12556429;23;20019;-75
2022/02/27 04:28:18;;;;;;;14.10;5.38;;;;;;;1.73;67.04;99442.50;12578183;23;20022;-76
2022/02/27 04:33:38;;;;;;;14.32;5.80;;;;;;;1.68;66.87;99451.50;12576722;23;20023;-76
2022/02/27 04:39:00;;;;;;;14.63;6.30;;;;;;;1.61;66.61;99446.47;12537467;23;20027;-76
2022/02/27 04:44:23;;;;;;;13.65;5.80;;;;;;;1.49;66.71;99444.91;12536946;23;20026;-76
2022/02/27 04:49:45;;;;;;;14.35;5.90;;;;;;;1.52;66.51;99438.41;12556755;23;20015;-76
2022/02/27 04:55:07;;;;;;;13.48;6.25;;;;;;;1.61;67.61;99451.97;12560496;23;20351;-76
2022/02/27 05:00:28;;;;;;;14.52;6.00;;;;;;;1.67;66.97;99445.25;12539649;23;20026;-76
2022/02/27 05:05:49;;;;;;;14.00;6.03;;;;;;;1.69;67.12;99453.75;12541586;23;20025;-75
2022/02/27 05:11:10;;;;;;;14.52;5.78;;;;;;;1.73;67.33;99453.53;12560982;23;20449;-75
2022/02/27 05:16:32;;;;;;;13.95;6.35;;;;;;;1.70;67.59;99460.03;12559331;23;20025;-76
2022/02/27 05:21:53;;;;;;;13.82;6.30;;;;;;;1.67;67.36;99463.78;12559408;23;20015;-76
2022/02/27 05:27:14;;;;;;;10.15;5.70;;;;;;;1.61;67.58;99471.22;12517846;23;20430;-77
2022/02/27 05:32:38;;;;;;;14.38;6.57;;;;;;;1.56;67.48;99477.47;12558379;23;20070;-76
2022/02/27 05:37:59;;;;;;;14.77;6.68;;;;;;;1.50;67.35;99474.69;12556891;23;20434;-75
2022/02/27 05:43:21;;;;;;;13.30;6.15;;;;;;;1.51;67.01;99491.94;12538387;23;20089;-76
2022/02/27 05:48:42;;;;;;;18.77;6.80;;;;;;;1.40;67.22;99503.63;12559357;23;20086;-77
2022/02/27 05:54:03;;;;;;;10.30;6.00;;;;;;;1.43;67.35;99503.41;12520215;23;20019;-76
2022/02/27 05:59:27;;;;;;;15.48;6.80;;;;;;;1.52;67.11;99507.97;12581036;23;20489;-77
2022/02/27 06:04:48;;;;;;;14.05;6.35;;;;;;;1.68;67.09;99523.84;12543502;23;20026;-76
2022/02/27 06:10:11;;;;;;;17.27;7.60;;;;;;;2.75;66.63;99521.50;12538577;23;20029;-77
2022/02/27 06:15:34;;;;;;;13.27;6.63;;;;;;;4.76;65.15;99526.59;12559692;23;20070;-77
2022/02/27 06:20:55;;;;;;;12.88;7.55;;;;;;;6.88;62.89;99534.03;12559482;23;20023;-77
2022/02/27 06:26:26;;;;;;;19.45;9.45;;;;;;;8.81;59.12;99532.31;12539911;23;20106;-77
2022/02/27 06:31:55;;;;;;;14.02;8.80;;;;;;;10.66;56.46;99546.34;12559107;23;20025;-77
2022/02/27 06:37:16;;;;;;;16.63;7.65;;;;;;;12.18;55.84;99543.69;12539350;23;20307;-76
2022/02/27 06:42:38;;;;;;;12.13;7.13;;;;;;;13.69;52.77;99551.84;12559343;23;20438;-78
2022/02/27 06:47:59;;;;;;;13.35;7.00;;;;;;;13.51;51.86;99558.00;12560555;23;20026;-78
2022/02/27 06:53:27;;;;;;;13.85;6.82;;;;;;;13.13;50.61;99553.38;12561960;23;20019;-77
2022/02/27 06:59:22;;;;;;;11.10;6.40;;;;;;;16.36;44.96;99552.41;12560906;23;20082;-78
2022/02/27 07:04:46;;;;;;;10.38;6.22;;;;;;;18.02;43.31;99557.75;12568537;23;20089;-75
2022/02/27 07:10:08;;;;;;;20.48;14.52;;;;;;;19.31;38.79;99561.09;12541053;23;20430;-76
2022/02/27 07:15:58;;;;;;;10.50;6.90;;;;;;;20.49;37.56;99563.22;12544607;23;20030;-78
2022/02/27 07:21:19;;;;;;;10.02;6.60;;;;;;;21.62;34.27;99570.13;12540439;23;20019;-75
2022/02/27 07:26:40;;;;;;;9.27;5.63;;;;;;;22.42;34.84;99581.38;12558222;23;20015;-75
2022/02/27 07:32:02;;;;;;;9.65;5.82;;;;;;;23.25;24.67;99583.91;12578762;23;20023;-75
2022/02/27 07:37:25;;;;;;;11.83;5.83;;;;;;;23.36;28.13;99586.59;12539134;23;20019;-75
2022/02/27 07:42:47;;;;;;;9.13;5.30;;;;;;;24.49;26.91;99586.56;12537812;23;20069;-75
2022/02/27 07:48:08;;;;;;;7.03;4.72;;;;;;;25.32;25.28;99595.63;12559443;23;20015;-75
2022/02/27 07:53:29;;;;;;;8.73;5.20;;;;;;;25.93;21.88;99600.75;12537911;23;20019;-75
2022/02/27 07:58:52;;;;;;;7.30;5.25;;;;;;;25.63;20.85;99602.47;12557777;23;20019;-74
2022/02/27 08:04:13;;;;;;;5.93;3.90;;;;;;;25.79;19.40;99599.50;12544641;23;20023;-77
2022/02/27 08:09:35;;;;;;;5.90;4.03;;;;;;;25.99;18.58;99599.50;12537914;23;20046;-76
2022/02/27 08:14:55;;;;;;;5.95;3.80;;;;;;;25.98;17.16;99598.03;12517261;23;20022;-76
2022/02/27 08:20:16;;;;;;;6.78;3.83;;;;;;;26.46;15.23;99590.44;12517330;23;20026;-77
2022/02/27 08:25:38;;;;;;;5.78;3.72;;;;;;;23.28;17.11;99582.63;12536092;23;20015;-78
2022/02/27 08:30:59;;;;;;;5.35;3.35;;;;;;;24.79;16.04;99590.66;12535903;23;20015;-79
2022/02/27 08:36:20;;;;;;;8.30;4.40;;;;;;;26.35;14.04;99577.88;12555898;23;20014;-80
2022/02/27 08:41:41;;;;;;;7.93;4.32;;;;;;;27.23;13.22;99584.31;12555838;23;20045;-78
2022/02/27 08:47:05;;;;;;;5.75;4.45;;;;;;;25.14;14.02;99588.47;12536278;23;20434;-81
2022/02/27 08:52:25;;;;;;;6.15;4.10;;;;;;;22.76;16.07;99581.56;12535806;23;20027;-80
2022/02/27 08:57:46;;;;;;;5.43;4.60;;;;;;;22.10;17.37;99583.31;12555807;23;20438;-80
2022/02/27 09:03:07;;;;;;;5.90;4.85;;;;;;;21.27;18.61;99581.75;12517009;23;20022;-80
2022/02/27 09:08:28;;;;;;;;;;;;;;;20.75;19.24;99583.84;12556938;23;20074;-79
2022/02/27 09:13:49;;;;;;;6.47;5.32;;;;;;;20.11;20.73;99587.22;12516459;23;19921;-80
2022/02/27 09:19:10;;;;;;;;;;;;;;;21.23;20.15;99578.63;12555537;23;20045;-80
2022/02/27 09:24:32;;;;;;;7.18;5.88;;;;;;;24.25;19.22;99581.28;12536919;23;20041;-80
2022/02/27 09:29:54;;;;;;;5.82;4.68;;;;;;;28.24;14.60;99572.13;12511739;23;20019;-82
2022/02/27 09:35:15;;;;;;;6.70;4.93;;;;;;;30.65;12.03;99583.06;12530198;23;20106;-81
2022/02/27 09:40:37;;;;;;;6.25;5.50;;;;;;;32.26;10.37;99574.34;12556012;23;20018;-82
2022/02/27 09:45:59;;;;;;;6.20;5.18;;;;;;;33.39;10.50;99575.94;12559252;23;20019;-82
2022/02/27 09:51:23;;;;;;;5.78;4.55;;;;;;;34.01;8.75;99566.78;12539865;23;20038;-82
2022/02/27 09:56:44;;;;;;;6.55;4.60;;;;;;;34.47;8.78;99567.59;12558805;23;20015;-82
2022/02/27 10:02:05;;;;;;;6.03;4.78;;;;;;;34.40;8.50;99567.56;12556488;23;20029;-82
2022/02/27 10:07:26;;;;;;;7.28;5.03;;;;;;;34.32;8.34;99563.91;12539351;23;20022;-82
2022/02/27 10:12:48;;;;;;;7.63;4.95;;;;;;;36.00;8.39;99565.75;12558515;23;20015;-82
2022/02/27 10:18:15;;;;;;;4.88;4.47;;;;;;;33.83;7.93;99561.63;12518875;23;20015;-82
2022/02/27 10:23:37;;;;;;;7.22;4.43;;;;;;;32.46;8.70;99565.91;12538171;23;20350;-82
2022/02/27 10:29:13;;;;;;;5.65;4.45;;;;;;;31.47;9.30;99570.56;12539045;23;20046;-82
2022/02/27 10:34:35;;;;;;;6.68;5.40;;;;;;;31.73;9.67;99559.31;12538150;23;20015;-86
2022/02/27 10:39:57;;;;;;;7.50;4.68;;;;;;;33.37;8.70;99553.50;12539194;23;20101;-86
2022/02/27 10:45:19;;;;;;;4.75;4.10;;;;;;;32.83;8.65;99556.78;12519513;23;20018;-87
2022/02/27 10:50:40;;;;;;;5.60;4.68;;;;;;;32.74;8.58;99553.09;12538775;23;20027;-87
2022/02/27 10:56:04;;;;;;;5.20;4.65;;;;;;;32.38;8.58;99556.44;12558681;23;20022;-82
2022/02/27 11:01:25;;;;;;;5.78;4.70;;;;;;;28.36;9.73;99553.75;12553507;23;20074;-82
2022/02/27 11:06:48;;;;;;;7.30;5.53;;;;;;;21.91;13.77;99544.66;12515733;23;20461;-82
2022/02/27 11:12:09;;;;;;;6.32;5.13;;;;;;;21.01;15.13;99535.56;12515618;23;20320;-83
2022/02/27 11:17:32;;;;;;;7.75;5.88;;;;;;;18.92;16.28;99540.97;12555708;23;20434;-82
2022/02/27 11:22:56;;;;;;;7.63;6.25;;;;;;;18.37;17.40;99523.28;12555194;23;20403;-83
2022/02/27 11:28:20;;;;;;;7.85;5.60;;;;;;;17.20;19.20;99519.66;12554496;23;20023;-85
2022/02/27 11:33:41;;;;;;;6.60;5.47;;;;;;;16.78;19.13;99518.13;12534190;23;20015;-84
2022/02/27 11:39:04;;;;;;;7.35;5.93;;;;;;;17.33;18.97;99502.94;12534105;23;20033;-84
2022/02/27 11:44:40;;;;;;;17.57;7.83;;;;;;;16.76;19.63;99501.06;12534355;23;20015;-84
2022/02/27 11:50:23;;;;;;;5.70;4.30;;;;;;;15.22;19.80;99495.97;12537569;23;20019;-85
2022/02/27 11:55:44;;;;;;;5.78;4.45;;;;;;;15.97;19.89;99493.97;12536815;23;20022;-81
2022/02/27 12:01:07;;;;;;;5.85;4.88;;;;;;;16.24;19.81;99488.19;12555677;23;20022;-83
2022/02/27 12:06:57;;;;;;;7.22;5.38;;;;;;;15.21;21.08;99486.03;12555996;23;20021;-81
2022/02/27 12:12:36;;;;;;;7.90;5.60;;;;;;;15.49;21.04;99482.59;12536924;23;20039;-83
2022/02/27 12:18:19;;;;;;;7.28;5.72;;;;;;;14.51;21.89;99472.22;12516926;23;20015;-80
2022/02/27 12:24:21;;;;;;;8.65;5.82;;;;;;;13.93;22.84;99474.56;12556835;23;20019;-78
2022/02/27 12:29:51;;;;;;;7.72;5.85;;;;;;;13.31;23.32;99467.28;12582024;23;20053;-78
2022/02/27 12:35:18;;;;;;;9.05;6.20;;;;;;;13.18;23.71;99466.22;12558900;23;20015;-77
2022/02/27 12:40:39;;;;;;;9.95;6.65;;;;;;;12.70;23.49;99464.88;12576638;23;20042;-81
2022/02/27 12:47:04;;;;;;;7.45;5.43;;;;;;;12.76;24.52;99466.16;12658252;23;20508;-80
2022/02/27 12:52:26;;;;;;;10.15;5.60;;;;;;;12.54;25.08;99459.34;12698577;23;20014;-79
2022/02/27 12:57:51;;;;;;;6.88;5.15;;;;;;;12.27;24.49;99475.91;12707009;23;20024;-78
2022/02/27 13:03:15;;;;;;;7.82;5.57;;;;;;;11.78;25.16;99468.00;12695714;23;20013;-78
2022/02/27 13:09:07;;;;;;;7.68;5.22;;;;;;;11.84;25.47;99467.81;12698295;23;20328;-78
2022/02/27 13:14:27;;;;;;;7.80;5.45;;;;;;;11.11;26.99;99457.03;12703394;23;20013;-78
2022/02/27 13:19:50;;;;;;;9.90;6.35;;;;;;;11.22;26.72;99455.94;12719131;23;20022;-77
2022/02/27 13:25:12;;;;;;;8.55;6.35;;;;;;;11.44;26.39;99457.97;12698667;23;20018;-78
2022/02/27 13:30:33;;;;;;;8.70;6.97;;;;;;;11.49;27.01;99450.69;12703988;23;20013;-78
2022/02/27 13:35:55;;;;;;;9.40;6.68;;;;;;;11.07;27.92;99447.53;12700707;23;20093;-78
2022/02/27 13:41:27;;;;;;;9.23;6.45;;;;;;;10.42;28.33;99442.22;12743657;23;20017;-78
2022/02/27 13:46:52;;;;;;;8.60;6.32;;;;;;;10.16;27.82;99437.63;12694929;23;20425;-78
2022/02/27 13:52:19;;;;;;;;;;;;;;;10.12;29.17;99444.84;12668591;23;20018;-80
2022/02/27 13:57:40;;;;;;;9.80;5.53;;;;;;;10.59;28.43;99434.03;12628109;23;19932;-80
2022/02/27 14:03:43;;;;;;;8.55;5.32;;;;;;;11.16;28.04;99433.00;12654554;23;20030;-77
2022/02/27 14:09:09;;;;;;;9.70;5.57;;;;;;;11.28;27.66;99433.34;12620585;23;20022;-77
2022/02/27 14:14:30;;;;;;;8.38;5.07;;;;;;;10.57;27.80;99431.06;12702672;23;20018;-76
2022/02/27 14:19:53;;;;;;;8.20;5.63;;;;;;;10.19;27.61;99436.50;12660560;23;20021;-76
2022/02/27 14:25:27;;;;;;;9.63;5.45;;;;;;;10.20;28.03;99429.63;12681086;23;20022;-77
2022/02/27 14:31:03;;;;;;;8.48;5.47;;;;;;;10.25;28.35;99428.00;12678434;23;20037;-76
2022/02/27 14:36:24;;;;;;;7.25;5.75;;;;;;;10.20;28.24;99426.81;12659528;23;20024;-75
2022/02/27 14:41:47;;;;;;;7.55;4.95;;;;;;;10.32;28.89;99416.09;12659775;23;20429;-80
2022/02/27 14:47:08;;;;;;;7.85;5.00;;;;;;;9.90;28.42;99419.06;12682374;23;20069;-79
2022/02/27 14:52:29;;;;;;;8.32;5.88;;;;;;;9.36;29.28;99412.47;12691255;23;20001;-84
2022/02/27 14:57:51;;;;;;;11.27;5.70;;;;;;;8.95;29.74;99420.84;12712951;23;20048;-88
2022/02/27 15:03:18;;;;;;;7.97;5.93;;;;;;;8.67;30.14;99422.25;12706046;23;20029;-84
2022/02/27 15:08:39;;;;;;;11.20;5.45;;;;;;;8.50;30.32;99419.13;12736042;23;20006;-80
2022/02/27 15:14:01;;;;;;;8.73;5.00;;;;;;;8.53;30.59;99415.25;12674051;23;20025;-83
2022/02/27 15:19:21;;;;;;;7.18;4.78;;;;;;;8.60;30.29;99409.03;12734750;23;20006;-83
2022/02/27 15:24:42;;;;;;;9.73;4.60;;;;;;;8.49;30.05;99409.28;12734932;23;20001;-82
2022/02/27 15:30:04;;;;;;;8.23;4.78;;;;;;;8.57;30.61;99408.06;12689311;23;20014;-83
2022/02/27 15:35:25;;;;;;;8.35;5.22;;;;;;;8.85;30.50;99407.41;12713819;23;20005;-83
2022/02/27 15:40:47;;;;;;;8.65;4.72;;;;;;;9.08;30.49;99401.28;12693052;23;20006;-84
2022/02/27 15:46:09;;;;;;;9.73;5.38;;;;;;;9.23;30.45;99404.19;12694622;23;20048;-81
2022/02/27 15:51:32;;;;;;;8.65;5.50;;;;;;;9.02;30.41;99404.19;12769319;23;20057;-81
2022/02/27 15:56:55;;;;;;;6.90;4.80;;;;;;;8.59;30.40;99402.72;12734423;23;20018;-81
2022/02/27 16:02:16;;;;;;;6.57;4.47;;;;;;;8.15;30.65;99398.13;12747579;23;20048;-81
2022/02/27 16:07:39;;;;;;;8.57;4.90;;;;;;;7.83;31.08;99401.09;12749618;23;20456;-81
2022/02/27 16:13:01;;;;;;;7.30;5.13;;;;;;;7.56;31.42;99406.66;12759493;23;20076;-81
2022/02/27 16:18:22;;;;;;;8.45;5.93;;;;;;;7.27;31.98;99396.59;12768104;23;20001;-80
2022/02/27 16:23:43;;;;;;;10.93;6.60;;;;;;;7.12;32.61;99408.94;12753109;23;20508;-77
2022/02/27 16:29:15;;;;;;;13.25;6.85;;;;;;;6.99;32.59;99406.16;12718042;23;20021;-77
2022/02/27 16:34:36;;;;;;;10.88;7.30;;;;;;;6.90;32.97;99403.78;12738329;23;20021;-77
2022/02/27 16:39:57;;;;;;;10.90;7.10;;;;;;;6.79;33.10;99415.81;12738584;23;20072;-77
2022/02/27 16:45:20;;;;;;;13.55;7.82;;;;;;;6.70;33.38;99412.69;12739321;23;20432;-78
2022/02/27 16:50:41;;;;;;;10.57;7.32;;;;;;;6.61;33.69;99411.06;12669765;23;20455;-79
2022/02/27 16:56:02;;;;;;;10.75;7.05;;;;;;;6.48;33.91;99420.09;12665741;23;20094;-79
2022/02/27 17:01:29;;;;;;;15.50;8.02;;;;;;;6.39;34.23;99422.50;12637989;23;20014;-78
2022/02/27 17:06:50;;;;;;;12.77;7.90;;;;;;;6.28;34.88;99426.94;12676916;23;20021;-79
2022/02/27 17:12:14;;;;;;;13.50;8.38;;;;;;;6.12;34.52;99430.66;12664930;23;20018;-78
2022/02/27 17:17:37;;;;;;;16.60;7.95;;;;;;;6.00;34.69;99430.06;12661822;23;20022;-77
2022/02/27 17:23:07;;;;;;;11.75;7.38;;;;;;;5.95;35.18;99433.66;12657628;23;20025;-77
2022/02/27 17:28:43;;;;;;;14.50;8.70;;;;;;;5.85;36.06;99429.72;12657790;23;20045;-77
2022/02/27 17:34:06;;;;;;;12.55;7.78;;;;;;;5.77;35.45;99441.91;12656754;23;20013;-78
2022/02/27 17:39:28;;;;;;;12.43;8.10;;;;;;;5.77;35.96;99437.09;12696030;23;20018;-77
2022/02/27 17:44:55;;;;;;;12.40;8.52;;;;;;;5.75;36.16;99436.88;12657961;23;20025;-77
2022/02/27 17:50:20;;;;;;;15.30;9.25;;;;;;;5.74;36.23;99443.69;12692402;23;20325;-75
2022/02/27 17:55:42;;;;;;;14.80;9.80;;;;;;;5.64;36.38;99445.31;12698093;23;20021;-77
2022/02/27 18:01:02;;;;;;;14.57;9.35;;;;;;;5.56;36.64;99438.88;12678936;23;20067;-77
2022/02/27 18:06:24;;;;;;;13.70;10.20;;;;;;;5.45;37.33;99442.50;12699433;23;20013;-77
2022/02/27 18:11:45;;;;;;;13.48;9.13;;;;;;;5.29;37.11;99446.94;12699427;23;20097;-77
2022/02/27 18:17:06;;;;;;;11.68;8.90;;;;;;;5.24;37.32;99452.53;12699351;23;20018;-77
2022/02/27 18:22:28;;;;;;;17.02;10.15;;;;;;;5.23;37.21;99443.47;12699613;23;20023;-78
2022/02/27 18:28:00;;;;;;;20.33;11.13;;;;;;;5.19;38.04;99451.31;12720734;23;20017;-77
2022/02/27 18:33:21;;;;;;;15.00;10.40;;;;;;;5.14;37.43;99443.81;12740418;23;20093;-78
2022/02/27 18:38:52;;;;;;;24.65;14.10;;;;;;;5.08;38.77;99435.53;12740342;23;20017;-77
2022/02/27 18:44:13;;;;;;;20.63;14.50;;;;;;;4.97;38.60;99445.97;12720245;23;20017;-77
2022/02/27 18:49:34;;;;;;;25.92;16.75;;;;;;;4.88;39.22;99450.56;12720280;23;20092;-76
2022/02/27 18:54:58;;;;;;;21.00;9.75;;;;;;;4.83;40.00;99445.81;12719887;23;20020;-77
2022/02/27 19:00:19;;;;;;;15.20;9.80;;;;;;;4.68;39.91;99456.50;12698926;23;20026;-77
2022/02/27 19:05:40;;;;;;;16.45;10.55;;;;;;;4.75;40.32;99455.94;12679278;23;20334;-77
2022/02/27 19:11:02;;;;;;;16.20;10.60;;;;;;;4.68;39.78;99459.25;12718870;23;20013;-76
2022/02/27 19:16:26;;;;;;;16.95;11.68;;;;;;;4.72;40.25;99465.25;12740077;23;20025;-77
2022/02/27 19:21:50;;;;;;;15.93;11.15;;;;;;;4.79;40.17;99463.97;12719604;23;20041;-75
2022/02/27 19:27:12;;;;;;;16.10;10.55;;;;;;;4.70;40.32;99465.03;12740682;23;20018;-77
2022/02/27 19:32:34;;;;;;;16.50;10.38;;;;;;;4.62;40.62;99461.28;12719636;23;20073;-77
2022/02/27 19:37:59;;;;;;;15.98;10.40;;;;;;;4.48;40.85;99459.63;12740308;23;20017;-75
2022/02/27 19:43:22;;;;;;;18.90;9.85;;;;;;;4.40;41.08;99461.44;12678340;23;20021;-76
2022/02/27 19:48:50;;;;;;;17.00;11.02;;;;;;;4.28;41.97;99452.47;12713237;23;20305;-75
2022/02/27 19:54:42;;;;;;;18.60;11.30;;;;;;;4.23;41.80;99453.97;12739184;23;20029;-75
2022/02/27 20:00:07;;;;;;;18.13;11.65;;;;;;;4.19;42.06;99453.50;12718367;23;20029;-76
2022/02/27 20:05:57;;;;;;;18.33;11.30;;;;;;;4.09;42.14;99452.31;12693237;23;20021;-75
2022/02/27 20:11:54;;;;;;;22.60;12.30;;;;;;;4.01;41.99;99451.34;12723655;23;20021;-76
2022/02/27 20:17:18;;;;;;;19.77;11.85;;;;;;;3.91;42.54;99439.06;12720430;23;20017;-76
2022/02/27 20:22:40;;;;;;;19.98;11.05;;;;;;;3.84;42.91;99434.06;12739816;23;20324;-75
2022/02/27 20:28:02;;;;;;;19.05;11.90;;;;;;;3.72;42.46;99436.13;12718499;23;20072;-75
2022/02/27 20:33:26;;;;;;;17.80;10.82;;;;;;;3.68;43.14;99441.91;12720203;23;20049;-75
2022/02/27 20:39:20;;;;;;;19.02;11.90;;;;;;;3.61;43.36;99423.09;12708821;23;20029;-76
2022/02/27 20:44:41;;;;;;;18.85;10.10;;;;;;;3.60;43.08;99418.84;12718625;23;20020;-76
2022/02/27 20:50:03;;;;;;;18.95;11.77;;;;;;;3.53;43.39;99427.66;12725439;23;20028;-75
2022/02/27 20:55:27;;;;;;;20.45;11.50;;;;;;;3.46;43.47;99422.63;12674986;23;20104;-75
2022/02/27 21:02:20;;;;;;;20.60;11.95;;;;;;;3.48;44.02;99420.16;12737931;23;20428;-74
2022/02/27 21:08:17;;;;;;;19.67;11.95;;;;;;;3.43;44.23;99415.38;12738856;23;20345;-74
2022/02/27 21:14:14;;;;;;;18.88;11.27;;;;;;;3.36;44.79;99424.16;12709742;23;20025;-75
2022/02/27 21:20:40;;;;;;;20.05;12.05;;;;;;;3.29;45.18;99416.44;12738990;23;20025;-74
2022/02/27 21:26:41;;;;;;;19.23;11.18;;;;;;;3.23;44.68;99421.94;12761342;23;20037;-75
2022/02/27 21:32:39;;;;;;;21.67;12.35;;;;;;;3.18;44.81;99417.16;12722932;23;20029;-75
2022/02/27 21:39:05;;;;;;;17.90;11.68;;;;;;;3.10;45.47;99419.72;12727499;23;20399;-75
2022/02/27 21:44:56;;;;;;;21.48;12.38;;;;;;;2.99;44.95;99414.22;12722844;23;20456;-75
2022/02/27 21:51:55;;;;;;;25.17;14.00;;;;;;;2.93;45.89;99426.50;12722551;23;20029;-75
2022/02/27 21:57:53;;;;;;;20.88;13.13;;;;;;;2.81;46.08;99431.25;12742144;23;20085;-75
2022/02/27 22:04:17;;;;;;;25.98;14.93;;;;;;;2.64;46.05;99428.50;12726440;23;20097;-74
2022/02/27 22:10:06;;;;;;;25.17;15.13;;;;;;;2.37;47.18;99432.72;12711023;23;20025;-74
2022/02/27 22:16:06;;;;;;;27.27;16.40;;;;;;;2.15;47.89;99441.69;12712691;23;20025;-74
2022/02/27 22:31:11;;;;;;;;;;;;;;;2.00;49.45;99450.13;12742126;23;20017;-74
2022/02/27 22:37:00;;;;;;;29.17;16.15;;;;;;;1.96;49.25;99457.13;12726768;23;19917;-74
2022/02/27 22:42:58;;;;;;;31.90;15.73;;;;;;;1.99;49.81;99465.16;12726901;23;20325;-74
2022/02/27 22:49:52;;;;;;;28.77;15.93;;;;;;;1.93;50.09;99447.88;12711285;23;20092;-74
2022/02/27 23:12:01;;;;;;;29.33;17.05;;;;;;;1.50;53.58;99425.13;12740440;23;20096;-74
2022/02/27 23:34:25;;;;;;;30.88;15.68;;;;;;;1.31;53.17;99427.53;12740292;23;20021;-74
